Create Tblcommutelog Verified Points Advance Search
| # | Trip ID | Id Commuter | Trip Date | Trip Num | Current Lat | Current Lng | Delta Distance | Current Time | Activity | Activity Confidence | Current Speed | |
|---|---|---|---|---|---|---|---|---|---|---|---|---|
| 69681 | 251210_775339_16651697_1636 | 775339 | (not set) | (not set) | 38.879362329278 | -77.134351114126 | 6.9965 | 2025-12-10 17:12:03 | in_vehicle | 100 | 11.479968170805 | |
| 69682 | 251210_785674_6441454_1633 | 785674 | (not set) | (not set) | 39.191279 | -77.259328333333 | 15.4546 | 2025-12-10 17:12:03 | still | 33 | 11.453145815265 | |
| 69683 | 251210_771892_16639098_1645 | 771892 | (not set) | (not set) | 38.91845023657 | -76.995565659345 | 1.555 | 2025-12-10 17:12:03 | in_vehicle | 100 | -0.44703925898772 | |
| 69684 | 251210_771892_16639098_1645 | 771892 | (not set) | (not set) | 38.91845023657 | -76.995565659345 | 1.555 | 2025-12-10 17:12:03 | in_vehicle | 100 | -0.44703925898772 | |
| 69685 | 251210_771892_16639098_1645 | 771892 | (not set) | (not set) | 38.920573425583 | -76.996046404968 | 3.5693 | 2025-12-10 17:12:04 | in_vehicle | 100 | -0.44703925898772 | |
| 69686 | 251210_787692_16656198_1638 | 787692 | (not set) | (not set) | 39.161856042509 | -77.258287252402 | 17.7844 | 2025-12-10 17:12:04 | in_vehicle | 100 | 12.914964192155 | |
| 69687 | 251210_787692_16656198_1638 | 787692 | (not set) | (not set) | 39.161856042509 | -77.258287252402 | 17.7844 | 2025-12-10 17:12:04 | in_vehicle | 100 | 12.914964192155 | |
| 69688 | 251210_755831_16657208_1630 | 755831 | (not set) | (not set) | 39.078908128944 | -77.156151483108 | 10.4832 | 2025-12-10 17:12:04 | in_vehicle | 100 | 1.81944978408 | |
| 69689 | 251210_770910_0_1633 | 770910 | (not set) | (not set) | 38.812320365731 | -77.047805583287 | 3.0273 | 2025-12-10 17:12:05 | on_foot | 100 | -0.44703925898772 | |
| 69690 | 251210_770910_0_1633 | 770910 | (not set) | (not set) | 38.812320365731 | -77.047805583287 | 3.1815 | 2025-12-10 17:12:05 | on_foot | 100 | -0.44703925898772 | |
| 69691 | 251210_770910_0_1633 | 770910 | (not set) | (not set) | 38.812321032773 | -77.047806446209 | 3.1815 | 2025-12-10 17:12:05 | on_foot | 100 | -0.44703925898772 | |
| 69692 | 251210_789453_16658316_1637 | 789453 | (not set) | (not set) | 38.964443442942 | -76.904727775166 | 17.6873 | 2025-12-10 17:12:06 | in_vehicle | 100 | 9.7365150607526 | |
| 69693 | 251210_786552_16654909_1613 | 786552 | (not set) | (not set) | 39.062133916667 | -77.047301683333 | 15.1571 | 2025-12-10 17:12:06 | still | 33 | 5.8428031149696 | |
| 69694 | 251210_788304_16656904_1701 | 788304 | (not set) | (not set) | 38.8055836103 | -77.042331572199 | 0.2292 | 2025-12-10 17:12:01 | in_vehicle | 100 | -0.44703925898772 | |
| 69695 | 251210_788700_16657396_1606 | 788700 | (not set) | (not set) | 39.258677629651 | -76.652058638345 | 28.5773 | 2025-12-10 17:12:07 | in_vehicle | 100 | 6.7458224181248 | |
| 69696 | 251210_788105_16656667_1619 | 788105 | (not set) | (not set) | 38.829674920407 | -76.869951535817 | 10.7823 | 2025-12-10 17:12:04 | unknown | 100 | 1.7747458581813 | |
| 69697 | 251210_788304_16656904_1701 | 788304 | (not set) | (not set) | 38.8055836103 | -77.042331572199 | 0.2292 | 2025-12-10 17:12:01 | in_vehicle | 100 | -0.44703925898772 | |
| 69698 | 251210_788105_16656667_1619 | 788105 | (not set) | (not set) | 38.829674920407 | -76.869951535817 | 10.7823 | 2025-12-10 17:12:04 | unknown | 100 | 1.7747458581813 | |
| 69699 | 251210_780809_16658575_1511 | 780809 | (not set) | (not set) | 38.949042135021 | -77.39920181745 | 24.0828 | 2025-12-10 17:12:08 | on_foot | 100 | -0.44703925898772 | |
| 69700 | 251210_731669_16595792_1646 | 731669 | (not set) | (not set) | 38.875083944123 | -77.053594563127 | 2.4448 | 2025-12-10 17:12:08 | in_vehicle | 100 | 7.1973320697024 |